Time;durP1;ratioP1;P1;durP2;ratioP2;P2;SDS_P1;SDS_P2;PMS_P1;PMS_P2;Temp;Humidity;BMP_temperature;BMP_pressure;BME280_temperature;BME280_humidity;BME280_pressure;Samples;Min_cycle;Max_cycle;Signal;HPM_P1;HPM_P2
2022/07/28 00:01:42;;;;;;;0.00;0.00;;;;;;;;;;5093312;28;20119;-85
2022/07/28 00:04:08;;;;;;;0.00;0.00;;;;;;;;;;5093502;28;20147;-85
2022/07/28 00:06:34;;;;;;;0.00;0.00;;;;;;;;;;5093098;28;20455;-85
2022/07/28 00:08:59;;;;;;;0.00;0.00;;;;;;;;;;5093277;28;20134;-85
2022/07/28 00:11:25;;;;;;;0.00;0.00;;;;;;;;;;5092956;28;20100;-85
2022/07/28 00:13:51;;;;;;;0.00;0.00;;;;;;;;;;5076455;28;20048;-85
2022/07/28 00:16:17;;;;;;;0.00;0.00;;;;;;;;;;5092780;28;20066;-85
2022/07/28 00:18:44;;;;;;;0.00;0.00;;;;;;;;;;5093212;28;20047;-85
2022/07/28 00:21:10;;;;;;;0.00;0.00;;;;;;;;;;5075611;28;20566;-85
2022/07/28 00:23:36;;;;;;;1.30;0.20;;;;;;;;;;5092845;28;20071;-85
2022/07/28 00:26:02;;;;;;;0.00;0.00;;;;;;;;;;5092585;28;20075;-85
2022/07/28 00:28:28;;;;;;;0.00;0.00;;;;;;;;;;5092944;28;20036;-85
2022/07/28 00:30:54;;;;;;;0.00;0.00;;;;;;;;;;5092443;28;20550;-85
2022/07/28 00:33:20;;;;;;;0.00;0.00;;;;;;;;;;5075742;28;20093;-85
2022/07/28 00:35:46;;;;;;;0.00;0.00;;;;;;;;;;5092283;28;20047;-85
2022/07/28 00:38:12;;;;;;;0.00;0.00;;;;;;;;;;5092784;28;20048;-85
2022/07/28 00:43:23;;;;;;;0.00;0.00;;;;;;;;;;5092531;28;20044;-84
2022/07/28 00:45:49;;;;;;;0.00;0.00;;;;;;;;;;5092208;28;20047;-84
2022/07/28 00:48:15;;;;;;;0.00;0.00;;;;;;;;;;5092158;28;20043;-84
2022/07/28 00:50:42;;;;;;;0.00;0.00;;;;;;;;;;5092390;28;20134;-84
2022/07/28 00:53:08;;;;;;;0.00;0.00;;;;;;;;;;5092277;28;20048;-84
2022/07/28 00:55:34;;;;;;;0.00;0.00;;;;;;;;;;5092009;28;20044;-83
2022/07/28 00:58:01;;;;;;;0.00;0.00;;;;;;;;;;5092227;28;20050;-84
2022/07/28 01:00:27;;;;;;;0.00;0.00;;;;;;;;;;5091674;28;20052;-84
2022/07/28 01:02:52;;;;;;;0.00;0.00;;;;;;;;;;5092027;28;20047;-85
2022/07/28 01:05:19;;;;;;;0.00;0.00;;;;;;;;;;5092123;28;20040;-85
2022/07/28 01:07:51;;;;;;;0.00;0.00;;;;;;;;;;5075125;28;20379;-84
2022/07/28 01:10:28;;;;;;;0.00;0.00;;;;;;;;;;5074942;28;20052;-84
2022/07/28 01:13:10;;;;;;;0.00;0.00;;;;;;;;;;5091946;28;20036;-83
2022/07/28 01:15:40;;;;;;;0.00;0.00;;;;;;;;;;5091645;28;20040;-85
2022/07/28 01:18:08;;;;;;;0.00;0.00;;;;;;;;;;5092122;28;20087;-83
2022/07/28 01:20:40;;;;;;;0.00;0.00;;;;;;;;;;5091343;28;20150;-83
2022/07/28 01:23:25;;;;;;;0.00;0.00;;;;;;;;;;5092088;28;20047;-83
2022/07/28 01:26:05;;;;;;;0.00;0.00;;;;;;;;;;5091395;28;20115;-83
2022/07/28 01:28:31;;;;;;;0.00;0.00;;;;;;;;;;5091989;28;20126;-83
2022/07/28 01:31:01;;;;;;;0.00;0.00;;;;;;;;;;5074461;28;20523;-83
2022/07/28 01:33:33;;;;;;;0.00;0.00;;;;;;;;;;5091910;28;20097;-84
2022/07/28 01:36:06;;;;;;;0.00;0.00;;;;;;;;;;5091303;28;20044;-83
2022/07/28 01:38:33;;;;;;;0.00;0.00;;;;;;;;;;5091490;28;20043;-84
2022/07/28 01:41:00;;;;;;;0.00;0.00;;;;;;;;;;5091113;28;20122;-84
2022/07/28 01:43:28;;;;;;;0.00;0.00;;;;;;;;;;5091453;28;20036;-84
2022/07/28 01:45:55;;;;;;;0.00;0.00;;;;;;;;;;5074200;28;20089;-83
2022/07/28 01:48:22;;;;;;;0.00;0.00;;;;;;;;;;5074604;28;20434;-83
2022/07/28 01:50:49;;;;;;;0.00;0.00;;;;;;;;;;5090743;28;20079;-83
2022/07/28 01:53:16;;;;;;;0.00;0.00;;;;;;;;;;5091352;28;20044;-84
2022/07/28 01:55:42;;;;;;;0.00;0.00;;;;;;;;;;5091116;28;20128;-83
2022/07/28 01:58:09;;;;;;;0.00;0.00;;;;;;;;;;5091518;28;20043;-83
2022/07/28 02:00:35;;;;;;;0.00;0.00;;;;;;;;;;5090782;28;20048;-83
2022/07/28 02:03:05;;;;;;;0.00;0.00;;;;;;;;;;5091514;28;20044;-83
2022/07/28 02:05:32;;;;;;;0.00;0.00;;;;;;;;;;5090907;28;20043;-83
2022/07/28 02:08:00;;;;;;;0.00;0.00;;;;;;;;;;5091166;28;20048;-83
2022/07/28 02:10:27;;;;;;;0.00;0.00;;;;;;;;;;5074126;28;20093;-84
2022/07/28 02:12:53;;;;;;;0.00;0.00;;;;;;;;;;5091120;28;20101;-83
2022/07/28 02:15:20;;;;;;;0.00;0.00;;;;;;;;;;5074180;28;20039;-83
2022/07/28 02:17:47;;;;;;;0.00;0.00;;;;;;;;;;5090891;28;20059;-84
2022/07/28 02:20:14;;;;;;;0.00;0.00;;;;;;;;;;5091305;28;20040;-83
2022/07/28 02:22:41;;;;;;;0.00;0.00;;;;;;;;;;5074146;28;20036;-84
2022/07/28 02:25:07;;;;;;;0.00;0.00;;;;;;;;;;5091231;28;20039;-83
2022/07/28 02:27:38;;;;;;;0.00;0.00;;;;;;;;;;5074081;28;20040;-84
2022/07/28 02:30:10;;;;;;;0.00;0.00;;;;;;;;;;5090957;28;20360;-83
2022/07/28 02:32:36;;;;;;;0.00;0.00;;;;;;;;;;5073759;28;20083;-83
2022/07/28 02:35:10;;;;;;;0.00;0.00;;;;;;;;;;5090940;28;20425;-83
2022/07/28 02:37:39;;;;;;;0.00;0.00;;;;;;;;;;5090818;28;20127;-83
2022/07/28 02:40:05;;;;;;;0.00;0.00;;;;;;;;;;5074176;28;20047;-83
2022/07/28 02:42:34;;;;;;;0.00;0.00;;;;;;;;;;5092021;28;20126;-83
2022/07/28 02:45:02;;;;;;;0.00;0.00;;;;;;;;;;5090912;28;20439;-83
2022/07/28 02:47:31;;;;;;;0.00;0.00;;;;;;;;;;5090690;28;20131;-83
2022/07/28 02:49:58;;;;;;;0.00;0.00;;;;;;;;;;5090833;28;20109;-83
2022/07/28 02:52:24;;;;;;;0.00;0.00;;;;;;;;;;5090836;28;20096;-84
2022/07/28 02:54:51;;;;;;;0.00;0.00;;;;;;;;;;5090822;28;20066;-83
2022/07/28 02:57:18;;;;;;;0.00;0.00;;;;;;;;;;5090595;28;20123;-84
2022/07/28 02:59:44;;;;;;;0.00;0.00;;;;;;;;;;5090418;28;20414;-83
2022/07/28 03:02:11;;;;;;;0.00;0.00;;;;;;;;;;5090566;28;20044;-83
2022/07/28 03:07:23;;;;;;;0.00;0.00;;;;;;;;;;5094771;28;20075;-83
2022/07/28 03:09:49;;;;;;;0.00;0.00;;;;;;;;;;5077848;28;20129;-83
2022/07/28 03:12:15;;;;;;;0.00;0.00;;;;;;;;;;5077610;28;20040;-84
2022/07/28 03:14:41;;;;;;;0.00;0.00;;;;;;;;;;5094319;28;20042;-83
2022/07/28 03:17:08;;;;;;;0.00;0.00;;;;;;;;;;5077071;28;20085;-84
2022/07/28 03:19:34;;;;;;;0.00;0.00;;;;;;;;;;5094460;28;20044;-84
2022/07/28 03:22:00;;;;;;;0.00;0.00;;;;;;;;;;5093891;28;20040;-84
2022/07/28 03:24:29;;;;;;;0.00;0.00;;;;;;;;;;5077248;28;20146;-83
2022/07/28 03:26:58;;;;;;;0.00;0.00;;;;;;;;;;5077144;28;20036;-83
2022/07/28 03:29:25;;;;;;;0.00;0.00;;;;;;;;;;5093872;28;20043;-83
2022/07/28 03:31:53;;;;;;;0.00;0.00;;;;;;;;;;5076868;28;20040;-83
2022/07/28 03:34:19;;;;;;;0.00;0.00;;;;;;;;;;5076895;28;20047;-84
2022/07/28 03:36:46;;;;;;;0.00;0.00;;;;;;;;;;5093666;28;20437;-83
2022/07/28 03:39:15;;;;;;;0.00;0.00;;;;;;;;;;5076600;28;20071;-83
2022/07/28 03:41:41;;;;;;;0.00;0.00;;;;;;;;;;5076585;28;20071;-83
2022/07/28 03:44:08;;;;;;;0.00;0.00;;;;;;;;;;5093570;28;20040;-83
2022/07/28 03:46:34;;;;;;;0.00;0.00;;;;;;;;;;5076584;28;20074;-83
2022/07/28 03:49:00;;;;;;;0.00;0.00;;;;;;;;;;5076665;28;20079;-83
2022/07/28 03:51:28;;;;;;;0.00;0.00;;;;;;;;;;5093228;28;20072;-84
2022/07/28 03:53:54;;;;;;;0.00;0.00;;;;;;;;;;5093631;28;20051;-83
2022/07/28 03:56:20;;;;;;;0.00;0.00;;;;;;;;;;5093464;28;20044;-83
2022/07/28 03:58:46;;;;;;;0.00;0.00;;;;;;;;;;5093057;28;20085;-84
2022/07/28 04:01:12;;;;;;;0.00;0.00;;;;;;;;;;5093063;28;20146;-83
2022/07/28 04:03:38;;;;;;;0.00;0.00;;;;;;;;;;5076139;28;20068;-84
2022/07/28 04:06:04;;;;;;;0.00;0.00;;;;;;;;;;5093145;28;20074;-83
2022/07/28 04:08:30;;;;;;;0.00;0.00;;;;;;;;;;5092920;28;20036;-84
2022/07/28 04:10:56;;;;;;;0.00;0.00;;;;;;;;;;5076314;28;20321;-83
2022/07/28 04:13:22;;;;;;;0.00;0.00;;;;;;;;;;5092812;28;20071;-83
2022/07/28 04:15:48;;;;;;;0.00;0.00;;;;;;;;;;5092716;28;20047;-83
2022/07/28 04:18:14;;;;;;;0.00;0.00;;;;;;;;;;5092733;28;20391;-83
2022/07/28 04:20:40;;;;;;;0.00;0.00;;;;;;;;;;5092894;28;20123;-84
2022/07/28 04:23:06;;;;;;;0.00;0.00;;;;;;;;;;5092711;28;20499;-83
2022/07/28 04:25:32;;;;;;;0.00;0.00;;;;;;;;;;5092705;28;20060;-83
2022/07/28 04:27:58;;;;;;;0.00;0.00;;;;;;;;;;5092604;28;20043;-82
2022/07/28 04:30:26;;;;;;;0.00;0.00;;;;;;;;;;5092840;28;20036;-85
2022/07/28 04:32:53;;;;;;;0.00;0.00;;;;;;;;;;5075822;28;20036;-83
2022/07/28 04:35:19;;;;;;;0.00;0.00;;;;;;;;;;5076050;28;20408;-84
2022/07/28 04:37:47;;;;;;;0.00;0.00;;;;;;;;;;5075512;28;20505;-84
2022/07/28 04:40:13;;;;;;;0.00;0.00;;;;;;;;;;5075635;28;20040;-84
2022/07/28 04:42:40;;;;;;;0.00;0.00;;;;;;;;;;5092384;28;20499;-83
2022/07/28 04:45:07;;;;;;;0.00;0.00;;;;;;;;;;5092430;28;20391;-83
2022/07/28 04:47:33;;;;;;;0.00;0.00;;;;;;;;;;5075307;28;20043;-84
2022/07/28 04:49:59;;;;;;;0.00;0.00;;;;;;;;;;5092216;28;20047;-83
2022/07/28 04:52:25;;;;;;;0.00;0.00;;;;;;;;;;5092101;28;20032;-83
2022/07/28 04:54:52;;;;;;;0.00;0.00;;;;;;;;;;5092414;28;20036;-83
2022/07/28 04:57:18;;;;;;;0.00;0.00;;;;;;;;;;5091923;28;20483;-83
2022/07/28 04:59:44;;;;;;;0.00;0.00;;;;;;;;;;5091924;28;20052;-83
2022/07/28 05:02:11;;;;;;;0.00;0.00;;;;;;;;;;5074819;28;20433;-84
2022/07/28 05:04:37;;;;;;;0.00;0.00;;;;;;;;;;5092256;28;20479;-83
2022/07/28 05:07:03;;;;;;;0.00;0.00;;;;;;;;;;5092257;28;20071;-84
2022/07/28 05:09:29;;;;;;;0.00;0.00;;;;;;;;;;5074720;28;20502;-83
2022/07/28 05:11:55;;;;;;;0.00;0.00;;;;;;;;;;5091846;28;20044;-83
2022/07/28 05:14:21;;;;;;;0.00;0.00;;;;;;;;;;5091898;28;20101;-84
2022/07/28 05:16:47;;;;;;;0.00;0.00;;;;;;;;;;5091847;28;20561;-83
2022/07/28 05:19:13;;;;;;;0.00;0.00;;;;;;;;;;5091397;28;20040;-83
2022/07/28 05:21:39;;;;;;;0.00;0.00;;;;;;;;;;5091670;28;20080;-83
2022/07/28 05:24:05;;;;;;;0.00;0.00;;;;;;;;;;5091411;28;20036;-82
2022/07/28 05:26:31;;;;;;;0.00;0.00;;;;;;;;;;5091390;28;20101;-83
2022/07/28 05:28:57;;;;;;;0.00;0.00;;;;;;;;;;5074325;28;20040;-83
2022/07/28 05:31:23;;;;;;;0.00;0.00;;;;;;;;;;5091541;28;20036;-83
2022/07/28 05:33:49;;;;;;;0.00;0.00;;;;;;;;;;5091177;28;20040;-83
2022/07/28 05:36:15;;;;;;;0.00;0.00;;;;;;;;;;5091521;28;20086;-83
2022/07/28 05:38:41;;;;;;;0.00;0.00;;;;;;;;;;5091220;28;20108;-83
2022/07/28 05:41:08;;;;;;;0.00;0.00;;;;;;;;;;5091256;28;20513;-83
2022/07/28 05:43:36;;;;;;;0.00;0.00;;;;;;;;;;5074237;28;20032;-83
2022/07/28 05:46:03;;;;;;;0.00;0.00;;;;;;;;;;5074404;28;20479;-83
2022/07/28 05:48:29;;;;;;;0.00;0.00;;;;;;;;;;5091196;28;20059;-83
2022/07/28 05:50:55;;;;;;;0.00;0.00;;;;;;;;;;5091341;28;20044;-83
2022/07/28 05:53:21;;;;;;;0.00;0.00;;;;;;;;;;5091039;28;20079;-83
2022/07/28 05:55:48;;;;;;;0.00;0.00;;;;;;;;;;5091402;28;20471;-83
2022/07/28 05:58:14;;;;;;;0.00;0.00;;;;;;;;;;5090911;28;20051;-83
2022/07/28 06:00:40;;;;;;;0.00;0.00;;;;;;;;;;5090764;28;20388;-83
2022/07/28 06:03:06;;;;;;;0.00;0.00;;;;;;;;;;5091087;28;20044;-83
2022/07/28 06:05:32;;;;;;;0.00;0.00;;;;;;;;;;5091187;28;20153;-83
2022/07/28 06:07:59;;;;;;;0.00;0.00;;;;;;;;;;5074156;28;20130;-83
2022/07/28 06:10:26;;;;;;;0.00;0.00;;;;;;;;;;5091120;28;20126;-83
2022/07/28 06:12:53;;;;;;;0.00;0.00;;;;;;;;;;5073880;28;20040;-83
2022/07/28 06:15:21;;;;;;;0.00;0.00;;;;;;;;;;5090882;28;20086;-83
2022/07/28 06:17:51;;;;;;;0.00;0.00;;;;;;;;;;5091516;28;20122;-83
2022/07/28 06:20:17;;;;;;;0.00;0.00;;;;;;;;;;5090681;28;20458;-83
2022/07/28 06:22:44;;;;;;;0.00;0.00;;;;;;;;;;5092215;28;20036;-83
2022/07/28 06:25:14;;;;;;;0.00;0.00;;;;;;;;;;5090754;28;20070;-83
2022/07/28 06:27:40;;;;;;;0.00;0.00;;;;;;;;;;5090865;28;20046;-82
2022/07/28 06:30:06;;;;;;;0.00;0.00;;;;;;;;;;5073835;28;20076;-83
2022/07/28 06:32:32;;;;;;;0.00;0.00;;;;;;;;;;5087720;28;20051;-83
2022/07/28 06:34:59;;;;;;;0.00;0.00;;;;;;;;;;5071915;28;20044;-84
2022/07/28 06:37:25;;;;;;;0.00;0.00;;;;;;;;;;5071606;28;20072;-83
2022/07/28 06:39:50;;;;;;;0.20;0.00;;;;;;;;;;5091244;28;20459;-84
2022/07/28 06:42:17;;;;;;;0.00;0.00;;;;;;;;;;5091313;28;20048;-84
2022/07/28 06:44:42;;;;;;;0.00;0.00;;;;;;;;;;5093846;28;20046;-85
2022/07/28 06:47:08;;;;;;;0.00;0.00;;;;;;;;;;5091387;28;20429;-83
2022/07/28 06:49:34;;;;;;;0.00;0.00;;;;;;;;;;5085735;28;20040;-84
2022/07/28 06:52:00;;;;;;;0.00;0.00;;;;;;;;;;5091178;28;20085;-84
2022/07/28 06:54:26;;;;;;;0.00;0.00;;;;;;;;;;5091082;28;20040;-83
2022/07/28 06:56:52;;;;;;;0.00;0.00;;;;;;;;;;5091335;28;20149;-83
2022/07/28 06:59:19;;;;;;;0.00;0.00;;;;;;;;;;5090571;28;20131;-83
2022/07/28 07:01:44;;;;;;;0.00;0.00;;;;;;;;;;5090988;28;20091;-83
2022/07/28 07:04:11;;;;;;;0.00;0.00;;;;;;;;;;5090949;28;20084;-83
2022/07/28 07:06:36;;;;;;;0.00;0.00;;;;;;;;;;5075897;28;20080;-85
2022/07/28 07:09:02;;;;;;;0.00;0.00;;;;;;;;;;5069869;28;20515;-84
2022/07/28 07:11:29;;;;;;;0.00;0.00;;;;;;;;;;5083769;28;20161;-83
2022/07/28 07:13:55;;;;;;;0.00;0.00;;;;;;;;;;5074434;28;20105;-83
2022/07/28 07:16:21;;;;;;;0.00;0.00;;;;;;;;;;5090870;28;20428;-84
2022/07/28 07:18:49;;;;;;;0.00;0.00;;;;;;;;;;5090566;28;20044;-84
2022/07/28 07:21:15;;;;;;;0.00;0.00;;;;;;;;;;5083607;28;20084;-83
2022/07/28 07:23:41;;;;;;;0.00;0.00;;;;;;;;;;5087157;28;20548;-83
2022/07/28 07:26:07;;;;;;;0.00;0.00;;;;;;;;;;5073964;28;20036;-83
2022/07/28 07:28:33;;;;;;;0.00;0.00;;;;;;;;;;5090509;28;20051;-84
2022/07/28 07:30:59;;;;;;;0.00;0.00;;;;;;;;;;5090407;28;20036;-84
2022/07/28 07:33:25;;;;;;;0.00;0.00;;;;;;;;;;5090456;28;20576;-83
2022/07/28 07:35:51;;;;;;;0.00;0.00;;;;;;;;;;5075740;28;20040;-83
2022/07/28 07:38:17;;;;;;;0.00;0.00;;;;;;;;;;5093395;28;20052;-83
2022/07/28 07:40:43;;;;;;;0.00;0.00;;;;;;;;;;5092637;28;20055;-85
2022/07/28 07:43:09;;;;;;;0.00;0.00;;;;;;;;;;5093708;28;20032;-86
2022/07/28 07:45:35;;;;;;;0.00;0.00;;;;;;;;;;5094618;28;20494;-85
2022/07/28 07:48:02;;;;;;;0.00;0.00;;;;;;;;;;5076796;28;20399;-84
2022/07/28 07:50:28;;;;;;;0.00;0.00;;;;;;;;;;5092858;28;20125;-84
2022/07/28 07:52:54;;;;;;;0.00;0.00;;;;;;;;;;5093555;28;20378;-84
2022/07/28 07:55:20;;;;;;;0.00;0.00;;;;;;;;;;5093215;28;20144;-84
2022/07/28 07:57:46;;;;;;;0.00;0.00;;;;;;;;;;5076564;28;20044;-84
2022/07/28 08:00:13;;;;;;;0.00;0.00;;;;;;;;;;5092905;28;20056;-85
2022/07/28 08:02:42;;;;;;;0.00;0.00;;;;;;;;;;5076484;28;20088;-84
2022/07/28 08:05:08;;;;;;;0.00;0.00;;;;;;;;;;5093406;28;20078;-84
2022/07/28 08:07:35;;;;;;;0.00;0.00;;;;;;;;;;5093358;28;20063;-84
2022/07/28 08:10:01;;;;;;;0.00;0.00;;;;;;;;;;5092993;28;20040;-86
2022/07/28 08:12:27;;;;;;;0.00;0.00;;;;;;;;;;5093287;28;20119;-84
2022/07/28 08:14:53;;;;;;;0.00;0.00;;;;;;;;;;5092779;28;20036;-84
2022/07/28 08:17:20;;;;;;;0.00;0.00;;;;;;;;;;5076440;28;20036;-84
2022/07/28 08:19:46;;;;;;;0.00;0.00;;;;;;;;;;5076058;28;20490;-84
2022/07/28 08:22:12;;;;;;;0.00;0.00;;;;;;;;;;5093487;28;20040;-85
2022/07/28 08:24:38;;;;;;;0.00;0.00;;;;;;;;;;5092113;28;20398;-85
2022/07/28 08:27:04;;;;;;;0.00;0.00;;;;;;;;;;5076561;28;20136;-85
2022/07/28 08:29:30;;;;;;;0.00;0.00;;;;;;;;;;5092702;28;20042;-84
2022/07/28 08:31:57;;;;;;;0.00;0.00;;;;;;;;;;5092931;28;20040;-85
2022/07/28 08:34:24;;;;;;;0.00;0.00;;;;;;;;;;5092625;28;20040;-82
2022/07/28 08:36:50;;;;;;;0.00;0.00;;;;;;;;;;5075953;28;20572;-82
2022/07/28 08:39:16;;;;;;;0.00;0.00;;;;;;;;;;5075604;28;20127;-82
2022/07/28 08:41:53;;;;;;;0.00;0.00;;;;;;;;;;5092398;28;20040;-83
2022/07/28 08:44:22;;;;;;;0.00;0.00;;;;;;;;;;5092596;28;20548;-83
2022/07/28 08:46:48;;;;;;;0.00;0.00;;;;;;;;;;5092489;28;20443;-83
2022/07/28 08:49:15;;;;;;;0.00;0.00;;;;;;;;;;5092372;28;20032;-83
2022/07/28 08:51:42;;;;;;;0.00;0.00;;;;;;;;;;5075124;28;20051;-83
2022/07/28 08:54:08;;;;;;;0.00;0.00;;;;;;;;;;5092319;28;20575;-83
2022/07/28 08:56:37;;;;;;;0.00;0.00;;;;;;;;;;5092187;28;20065;-83
2022/07/28 08:59:03;;;;;;;0.00;0.00;;;;;;;;;;5091911;28;20086;-83
2022/07/28 09:01:29;;;;;;;0.00;0.00;;;;;;;;;;5090948;28;20475;-83
2022/07/28 09:03:55;;;;;;;0.00;0.00;;;;;;;;;;5092200;28;20039;-83
2022/07/28 09:06:22;;;;;;;0.00;0.00;;;;;;;;;;5091798;28;20042;-83
2022/07/28 09:08:48;;;;;;;0.00;0.00;;;;;;;;;;5092084;28;20156;-82
2022/07/28 09:11:14;;;;;;;0.00;0.00;;;;;;;;;;5091779;28;20085;-83
2022/07/28 09:13:40;;;;;;;0.00;0.00;;;;;;;;;;5092468;28;20126;-83
2022/07/28 09:16:06;;;;;;;0.00;0.00;;;;;;;;;;5091548;28;20046;-84
2022/07/28 09:18:32;;;;;;;0.00;0.00;;;;;;;;;;5091782;28;20043;-83
2022/07/28 09:20:58;;;;;;;0.00;0.00;;;;;;;;;;5091565;28;20044;-82
2022/07/28 09:23:24;;;;;;;0.00;0.00;;;;;;;;;;5091838;28;20067;-85
2022/07/28 09:25:50;;;;;;;0.00;0.00;;;;;;;;;;5091766;28;20427;-85
2022/07/28 09:28:17;;;;;;;0.00;0.00;;;;;;;;;;5091572;28;20101;-83
2022/07/28 09:30:45;;;;;;;0.00;0.00;;;;;;;;;;5091374;28;20040;-83
2022/07/28 09:33:18;;;;;;;0.00;0.00;;;;;;;;;;5091548;28;20097;-84
2022/07/28 09:35:46;;;;;;;0.00;0.00;;;;;;;;;;5091451;28;20122;-84
2022/07/28 09:38:12;;;;;;;0.00;0.00;;;;;;;;;;5091540;28;20043;-83
2022/07/28 09:40:39;;;;;;;0.00;0.00;;;;;;;;;;5091277;28;20051;-83
2022/07/28 09:43:05;;;;;;;0.00;0.00;;;;;;;;;;5091355;28;20075;-83
2022/07/28 09:45:31;;;;;;;0.00;0.00;;;;;;;;;;5091456;28;20064;-84
2022/07/28 09:48:13;;;;;;;0.00;0.00;;;;;;;;;;5091305;28;20176;-83
2022/07/28 09:50:42;;;;;;;0.00;0.00;;;;;;;;;;5091143;28;20048;-84
2022/07/28 09:53:25;;;;;;;0.00;0.00;;;;;;;;;;5091364;28;20426;-84
2022/07/28 09:55:58;;;;;;;0.00;0.00;;;;;;;;;;5090977;28;20044;-84
2022/07/28 09:58:25;;;;;;;0.00;0.00;;;;;;;;;;5074236;28;20047;-82
2022/07/28 10:01:00;;;;;;;0.00;0.00;;;;;;;;;;5090611;28;20135;-83
2022/07/28 10:03:26;;;;;;;0.00;0.00;;;;;;;;;;5074431;28;20040;-83
2022/07/28 10:05:53;;;;;;;0.00;0.00;;;;;;;;;;5074225;28;20087;-84
2022/07/28 10:08:19;;;;;;;0.00;0.00;;;;;;;;;;5074263;28;20036;-83
2022/07/28 10:10:59;;;;;;;0.00;0.00;;;;;;;;;;5090670;28;20043;-84
2022/07/28 10:13:25;;;;;;;0.00;0.00;;;;;;;;;;5090749;28;20080;-83
2022/07/28 10:16:10;;;;;;;0.00;0.00;;;;;;;;;;5090735;28;20079;-83
2022/07/28 10:18:39;;;;;;;0.00;0.00;;;;;;;;;;5091102;28;20130;-82
2022/07/28 10:21:07;;;;;;;0.00;0.00;;;;;;;;;;5090581;28;20044;-82
2022/07/28 10:23:35;;;;;;;0.00;0.00;;;;;;;;;;5090754;28;20039;-82
2022/07/28 10:26:01;;;;;;;0.00;0.00;;;;;;;;;;5090726;28;20036;-82
2022/07/28 10:28:29;;;;;;;0.00;0.00;;;;;;;;;;5090801;28;20513;-83
2022/07/28 10:30:59;;;;;;;0.00;0.00;;;;;;;;;;5090549;28;20040;-82
2022/07/28 10:33:25;;;;;;;0.00;0.00;;;;;;;;;;5090856;28;20440;-83
2022/07/28 10:35:51;;;;;;;0.00;0.00;;;;;;;;;;5090557;28;20465;-83
2022/07/28 10:38:20;;;;;;;0.00;0.00;;;;;;;;;;5090726;28;20092;-81
2022/07/28 10:40:46;;;;;;;0.00;0.00;;;;;;;;;;5090510;28;20164;-82
2022/07/28 10:43:13;;;;;;;0.00;0.00;;;;;;;;;;5090843;28;20043;-82
2022/07/28 10:45:39;;;;;;;0.00;0.00;;;;;;;;;;5090432;28;20044;-83
2022/07/28 10:48:06;;;;;;;0.00;0.00;;;;;;;;;;5090618;28;20036;-83
2022/07/28 10:50:35;;;;;;;0.00;0.00;;;;;;;;;;5090504;28;20043;-82
2022/07/28 10:53:06;;;;;;;0.00;0.00;;;;;;;;;;5090366;28;20036;-84
2022/07/28 10:55:32;;;;;;;0.00;0.00;;;;;;;;;;5090630;28;20048;-85
2022/07/28 10:57:57;;;;;;;0.00;0.00;;;;;;;;;;5090463;28;20062;-86
2022/07/28 11:00:27;;;;;;;0.00;0.00;;;;;;;;;;5086844;28;20142;-85
2022/07/28 11:02:57;;;;;;;0.00;0.00;;;;;;;;;;5090137;28;20040;-85
2022/07/28 11:05:31;;;;;;;0.00;0.00;;;;;;;;;;5073422;28;20083;-84
2022/07/28 11:07:59;;;;;;;0.00;0.00;;;;;;;;;;5073496;28;20068;-84
2022/07/28 11:10:26;;;;;;;0.00;0.00;;;;;;;;;;5092292;28;20110;-87
2022/07/28 11:12:59;;;;;;;0.00;0.00;;;;;;;;;;5090619;28;20123;-84
2022/07/28 11:15:32;;;;;;;0.00;0.00;;;;;;;;;;5090797;28;20052;-87
2022/07/28 11:17:59;;;;;;;0.00;0.00;;;;;;;;;;5090308;28;20491;-85
2022/07/28 11:20:44;;;;;;;0.00;0.00;;;;;;;;;;5073677;28;20428;-84
2022/07/28 11:23:29;;;;;;;0.00;0.00;;;;;;;;;;5073514;28;20074;-85
2022/07/28 11:26:13;;;;;;;0.00;0.00;;;;;;;;;;5093908;28;20036;-84
2022/07/28 11:29:13;;;;;;;0.00;0.00;;;;;;;;;;5093899;28;20032;-85
2022/07/28 11:31:45;;;;;;;0.00;0.00;;;;;;;;;;5093704;28;20445;-84
2022/07/28 11:34:12;;;;;;;0.00;0.00;;;;;;;;;;5076874;28;20048;-84
2022/07/28 11:36:57;;;;;;;0.00;0.00;;;;;;;;;;5076759;28;20047;-85
2022/07/28 11:39:24;;;;;;;0.00;0.00;;;;;;;;;;5094125;28;20052;-85
2022/07/28 11:41:50;;;;;;;0.00;0.00;;;;;;;;;;5093501;28;20036;-85
2022/07/28 11:44:29;;;;;;;0.00;0.00;;;;;;;;;;5093769;28;20509;-85
2022/07/28 11:47:15;;;;;;;0.00;0.00;;;;;;;;;;5093679;28;20040;-85
2022/07/28 11:49:41;;;;;;;0.00;0.00;;;;;;;;;;5094962;28;20490;-85
2022/07/28 11:52:08;;;;;;;0.00;0.00;;;;;;;;;;5093496;28;20040;-86
2022/07/28 11:54:35;;;;;;;0.00;0.00;;;;;;;;;;5076683;28;20044;-87
2022/07/28 11:57:01;;;;;;;0.00;0.00;;;;;;;;;;5075432;28;20044;-86
2022/07/28 11:59:27;;;;;;;0.00;0.00;;;;;;;;;;5093151;28;20052;-84
2022/07/28 12:01:55;;;;;;;0.00;0.00;;;;;;;;;;5093266;28;20479;-84
2022/07/28 12:04:26;;;;;;;0.00;0.00;;;;;;;;;;5093369;28;20040;-84
2022/07/28 12:06:52;;;;;;;0.00;0.00;;;;;;;;;;5093209;28;20071;-85
2022/07/28 12:09:19;;;;;;;0.00;0.00;;;;;;;;;;5076272;28;20475;-84
2022/07/28 12:11:52;;;;;;;0.00;0.00;;;;;;;;;;5092792;28;20518;-86
2022/07/28 12:14:21;;;;;;;0.00;0.00;;;;;;;;;;5076658;28;20084;-85
2022/07/28 12:16:50;;;;;;;0.00;0.00;;;;;;;;;;5076176;28;20044;-85
2022/07/28 12:19:17;;;;;;;0.00;0.00;;;;;;;;;;5093251;28;20039;-85
2022/07/28 12:21:49;;;;;;;0.00;0.00;;;;;;;;;;5092717;28;20040;-85
2022/07/28 12:24:18;;;;;;;0.00;0.00;;;;;;;;;;5075786;28;20410;-85
2022/07/28 12:26:45;;;;;;;0.00;0.00;;;;;;;;;;5092734;28;20442;-85
2022/07/28 12:29:11;;;;;;;0.00;0.00;;;;;;;;;;5093027;28;20040;-84
2022/07/28 12:31:38;;;;;;;0.00;0.00;;;;;;;;;;5075848;28;20040;-85
2022/07/28 12:34:10;;;;;;;0.00;0.00;;;;;;;;;;5092869;28;20090;-85
2022/07/28 12:36:37;;;;;;;0.00;0.00;;;;;;;;;;5092824;28;20039;-86
2022/07/28 12:39:05;;;;;;;0.00;0.00;;;;;;;;;;5092608;28;20040;-86
2022/07/28 12:41:32;;;;;;;0.00;0.00;;;;;;;;;;5075647;28;20076;-86
2022/07/28 12:43:58;;;;;;;0.00;0.00;;;;;;;;;;5092421;28;20040;-85
2022/07/28 12:46:25;;;;;;;0.00;0.00;;;;;;;;;;5092565;28;20032;-85
2022/07/28 12:48:51;;;;;;;0.00;0.00;;;;;;;;;;5092278;28;20044;-85
2022/07/28 12:51:35;;;;;;;0.00;0.00;;;;;;;;;;5092608;28;20491;-86
2022/07/28 12:54:02;;;;;;;0.00;0.00;;;;;;;;;;5092501;28;20151;-86
2022/07/28 12:56:29;;;;;;;0.00;0.00;;;;;;;;;;5092726;28;20485;-86
2022/07/28 12:59:04;;;;;;;0.00;0.00;;;;;;;;;;5092003;28;20040;-88
2022/07/28 13:01:46;;;;;;;0.00;0.00;;;;;;;;;;5075471;28;20040;-86
2022/07/28 13:04:12;;;;;;;0.00;0.00;;;;;;;;;;5092252;28;20043;-85
2022/07/28 13:06:39;;;;;;;0.00;0.00;;;;;;;;;;5092418;28;20043;-86
2022/07/28 13:09:06;;;;;;;0.00;0.00;;;;;;;;;;5075066;28;20040;-86
2022/07/28 13:11:32;;;;;;;0.00;0.00;;;;;;;;;;5092157;28;20044;-86
2022/07/28 13:13:58;;;;;;;0.00;0.00;;;;;;;;;;5091882;28;20047;-85
2022/07/28 13:16:25;;;;;;;0.00;0.00;;;;;;;;;;5092022;28;20047;-86
2022/07/28 13:18:54;;;;;;;0.00;0.00;;;;;;;;;;5074921;28;20046;-86
2022/07/28 13:21:59;;;;;;;0.00;0.00;;;;;;;;;;5092224;28;20483;-85
2022/07/28 13:24:25;;;;;;;0.00;0.00;;;;;;;;;;5073990;28;20503;-86
2022/07/28 13:26:51;;;;;;;0.00;0.00;;;;;;;;;;5074089;28;20036;-86
2022/07/28 13:29:18;;;;;;;0.00;0.00;;;;;;;;;;5063825;28;20055;-86
2022/07/28 13:31:44;;;;;;;0.00;0.00;;;;;;;;;;5091853;28;20495;-85
2022/07/28 13:34:10;;;;;;;0.00;0.00;;;;;;;;;;5091671;28;20082;-87
2022/07/28 13:36:37;;;;;;;0.00;0.00;;;;;;;;;;5074951;28;20047;-86
2022/07/28 13:39:04;;;;;;;0.00;0.00;;;;;;;;;;5091708;28;20055;-84
2022/07/28 13:41:30;;;;;;;0.00;0.00;;;;;;;;;;5075153;28;20253;-85
2022/07/28 13:43:57;;;;;;;0.00;0.00;;;;;;;;;;5091910;28;20047;-85
2022/07/28 13:46:24;;;;;;;0.00;0.00;;;;;;;;;;5074790;28;20475;-85
2022/07/28 13:48:50;;;;;;;0.00;0.00;;;;;;;;;;5090995;28;20497;-85
2022/07/28 13:51:16;;;;;;;0.00;0.00;;;;;;;;;;5074624;28;20545;-85
2022/07/28 13:53:42;;;;;;;0.00;0.00;;;;;;;;;;5091380;28;20487;-85
2022/07/28 13:56:08;;;;;;;0.00;0.00;;;;;;;;;;5091563;28;20040;-85
2022/07/28 13:58:34;;;;;;;0.00;0.00;;;;;;;;;;5091198;28;20119;-87
2022/07/28 14:01:01;;;;;;;0.00;0.00;;;;;;;;;;5091278;28;20085;-84
2022/07/28 14:03:27;;;;;;;0.00;0.00;;;;;;;;;;5074471;28;20044;-85
2022/07/28 14:05:53;;;;;;;0.00;0.00;;;;;;;;;;5091520;28;20032;-86
2022/07/28 14:08:20;;;;;;;0.00;0.00;;;;;;;;;;5074124;28;20105;-86
2022/07/28 14:10:47;;;;;;;0.00;0.00;;;;;;;;;;5091207;28;20047;-84
2022/07/28 14:13:13;;;;;;;0.00;0.00;;;;;;;;;;5091570;28;20050;-85
2022/07/28 14:15:42;;;;;;;0.00;0.00;;;;;;;;;;5074194;28;20051;-83
2022/07/28 14:18:08;;;;;;;0.00;0.00;;;;;;;;;;5074023;28;20043;-84
2022/07/28 14:20:34;;;;;;;0.00;0.00;;;;;;;;;;5074320;28;20048;-85
2022/07/28 14:23:00;;;;;;;0.00;0.00;;;;;;;;;;5073978;28;20126;-84
2022/07/28 14:25:26;;;;;;;0.00;0.00;;;;;;;;;;5091276;28;20129;-84
2022/07/28 14:27:53;;;;;;;0.00;0.00;;;;;;;;;;5091065;28;20036;-84
2022/07/28 14:30:20;;;;;;;0.00;0.00;;;;;;;;;;5090758;28;20052;-84
2022/07/28 14:32:46;;;;;;;0.00;0.00;;;;;;;;;;5074049;28;20039;-83
2022/07/28 14:35:12;;;;;;;0.00;0.00;;;;;;;;;;5090836;28;20076;-84
2022/07/28 14:37:38;;;;;;;0.00;0.00;;;;;;;;;;5074089;28;20074;-85
2022/07/28 14:40:04;;;;;;;0.00;0.00;;;;;;;;;;5073729;28;20072;-84
2022/07/28 14:42:30;;;;;;;0.00;0.00;;;;;;;;;;5090869;28;20044;-84
2022/07/28 14:44:58;;;;;;;0.00;0.00;;;;;;;;;;5090630;28;20036;-85
2022/07/28 14:47:25;;;;;;;0.00;0.00;;;;;;;;;;5090854;28;20497;-84
2022/07/28 14:49:51;;;;;;;0.00;0.00;;;;;;;;;;5090599;28;20082;-84
2022/07/28 14:52:17;;;;;;;0.00;0.00;;;;;;;;;;5073966;28;20040;-84